Antigua — C46824W — position and weather

sailwx.info

Track history (hours):
 
Tides and Currents Weather Stations Pressure Air Temp Water Temp Dewpoint Dewpoint Depression Visibility Wind Speed Wind Dir Waves Ship Positions

Antigua

Last reported at 2017-Aug-16 15:52 UTC. Time now 2017-Nov-19 03:28 UTC.
Position N 47°37' W 003°35'.
Warning: this ship's position is months out of date.

Length 12 m.

Type: Sailing vessel. MMSI: 227153620.

Date/timePositionNaut miles runAvg speedWind from/ knotsBaromVisibWave heightAir tempDewpointWater temp
2017-Aug-16 15:52N 47°37' W 003°35'2 5.9
2017-Aug-16 15:30N 47°35' W 003°32'3 5.0
2017-Aug-16 15:01N 47°33' W 003°30'3 5.8
2017-Aug-16 14:30N 47°31' W 003°27'3 6.1
2017-Aug-16 14:00N 47°29' W 003°24'3 5.9
2017-Aug-16 13:30N 47°27' W 003°21'4 7.1
2017-Aug-16 13:00N 47°24' W 003°18'2 0.7
2017-Aug-16 10:10N 47°23' W 003°16'1 5.6
2017-Aug-16 10:00N 47°24' W 003°15'2 0.1
2017-Aug-15 17:56N 47°23' W 003°13'0 0.5
2017-Aug-15 17:30N 47°23' W 003°13'4 7.5
2017-Aug-15 17:00N 47°26' W 003°16'4 7.8
2017-Aug-15 16:30N 47°30' W 003°18'4 7.9
2017-Aug-15 16:00N 47°33' W 003°19'4 7.8
2017-Aug-15 15:30N 47°37' W 003°21'4 7.9
2017-Aug-15 15:00N 47°41' W 003°22'2 3.9
2017-Aug-15 14:29N 47°43' W 003°22'1 2.8
2017-Aug-15 14:00N 47°42' W 003°23'3 5.8
2017-Aug-15 13:30N 47°41' W 003°27'3 5.8
2017-Aug-15 13:00N 47°40' W 003°31'  
Track history (hours):
 
Tides and Currents Weather Stations Pressure Air Temp Water Temp Dewpoint Dewpoint Depression Visibility Wind Speed Wind Dir Waves Ship Positions

Antigua

Last reported at 2017-Aug-16 15:52 UTC. Time now 2017-Nov-19 03:28 UTC.
Position N 47°37' W 003°35'.
Warning: this ship's position is months out of date.

Length 12 m.

Type: Sailing vessel. MMSI: 227153620.

Date/timePositionNaut miles runAvg speedWind from/ knotsBaromVisibWave heightAir tempDewpointWater temp
2017-Aug-16 15:52N 47°37' W 003°35'2 5.9
2017-Aug-16 15:30N 47°35' W 003°32'3 5.0
2017-Aug-16 15:01N 47°33' W 003°30'3 5.8
2017-Aug-16 14:30N 47°31' W 003°27'3 6.1
2017-Aug-16 14:00N 47°29' W 003°24'3 5.9
2017-Aug-16 13:30N 47°27' W 003°21'4 7.1
2017-Aug-16 13:00N 47°24' W 003°18'2 0.7
2017-Aug-16 10:10N 47°23' W 003°16'1 5.6
2017-Aug-16 10:00N 47°24' W 003°15'2 0.1
2017-Aug-15 17:56N 47°23' W 003°13'0 0.5
2017-Aug-15 17:30N 47°23' W 003°13'4 7.5
2017-Aug-15 17:00N 47°26' W 003°16'4 7.8
2017-Aug-15 16:30N 47°30' W 003°18'4 7.9
2017-Aug-15 16:00N 47°33' W 003°19'4 7.8
2017-Aug-15 15:30N 47°37' W 003°21'4 7.9
2017-Aug-15 15:00N 47°41' W 003°22'2 3.9
2017-Aug-15 14:29N 47°43' W 003°22'1 2.8
2017-Aug-15 14:00N 47°42' W 003°23'3 5.8
2017-Aug-15 13:30N 47°41' W 003°27'3 5.8
2017-Aug-15 13:00N 47°40' W 003°31'  

Dump ship's entire track history